sensor_id;sensor_type;location;lat;lon;timestamp;P1;durP1;ratioP1;P2;durP2;ratioP2
10347;SDS011;5220;43.192;23.284;2023-02-01T00:00:14;6.27;;;4.57;;
10347;SDS011;5220;43.192;23.284;2023-02-01T00:02:43;5.23;;;3.57;;
10347;SDS011;5220;43.192;23.284;2023-02-01T00:05:10;3.50;;;3.07;;
10347;SDS011;5220;43.192;23.284;2023-02-01T00:07:37;4.43;;;3.17;;
10347;SDS011;5220;43.192;23.284;2023-02-01T00:10:04;3.47;;;3.10;;
10347;SDS011;5220;43.192;23.284;2023-02-01T00:12:32;4.00;;;2.97;;
10347;SDS011;5220;43.192;23.284;2023-02-01T00:14:59;5.37;;;3.20;;
10347;SDS011;5220;43.192;23.284;2023-02-01T00:17:25;45.17;;;16.60;;
10347;SDS011;5220;43.192;23.284;2023-02-01T00:19:53;12.03;;;6.77;;
10347;SDS011;5220;43.192;23.284;2023-02-01T00:22:20;7.77;;;4.27;;
10347;SDS011;5220;43.192;23.284;2023-02-01T00:24:47;32.73;;;20.53;;
10347;SDS011;5220;43.192;23.284;2023-02-01T00:27:13;10.07;;;6.53;;
10347;SDS011;5220;43.192;23.284;2023-02-01T00:29:43;4.93;;;3.93;;
10347;SDS011;5220;43.192;23.284;2023-02-01T00:32:10;6.73;;;4.80;;
10347;SDS011;5220;43.192;23.284;2023-02-01T00:34:37;8.23;;;3.90;;
10347;SDS011;5220;43.192;23.284;2023-02-01T00:37:05;6.70;;;5.10;;
10347;SDS011;5220;43.192;23.284;2023-02-01T00:39:31;14.73;;;7.90;;
10347;SDS011;5220;43.192;23.284;2023-02-01T00:41:59;12.90;;;8.63;;
10347;SDS011;5220;43.192;23.284;2023-02-01T00:44:26;12.93;;;7.90;;
10347;SDS011;5220;43.192;23.284;2023-02-01T00:46:53;11.67;;;7.43;;
10347;SDS011;5220;43.192;23.284;2023-02-01T00:49:19;5.70;;;3.93;;
10347;SDS011;5220;43.192;23.284;2023-02-01T00:51:46;6.57;;;3.70;;
10347;SDS011;5220;43.192;23.284;2023-02-01T00:54:15;7.47;;;5.43;;
10347;SDS011;5220;43.192;23.284;2023-02-01T00:56:41;7.40;;;4.83;;
10347;SDS011;5220;43.192;23.284;2023-02-01T00:59:10;9.50;;;5.50;;
10347;SDS011;5220;43.192;23.284;2023-02-01T01:01:37;6.17;;;4.70;;
10347;SDS011;5220;43.192;23.284;2023-02-01T01:04:04;6.53;;;4.67;;
10347;SDS011;5220;43.192;23.284;2023-02-01T01:06:32;11.03;;;5.87;;
10347;SDS011;5220;43.192;23.284;2023-02-01T01:09:00;7.63;;;5.10;;
10347;SDS011;5220;43.192;23.284;2023-02-01T01:11:30;7.50;;;4.83;;
10347;SDS011;5220;43.192;23.284;2023-02-01T01:13:59;3.93;;;3.33;;
10347;SDS011;5220;43.192;23.284;2023-02-01T01:16:27;3.60;;;2.30;;
10347;SDS011;5220;43.192;23.284;2023-02-01T01:18:55;2.47;;;2.27;;
10347;SDS011;5220;43.192;23.284;2023-02-01T01:21:22;3.17;;;2.53;;
10347;SDS011;5220;43.192;23.284;2023-02-01T01:23:49;4.93;;;2.70;;
10347;SDS011;5220;43.192;23.284;2023-02-01T01:26:16;4.37;;;2.57;;
10347;SDS011;5220;43.192;23.284;2023-02-01T01:28:45;2.37;;;2.17;;
10347;SDS011;5220;43.192;23.284;2023-02-01T01:31:13;2.83;;;2.40;;
10347;SDS011;5220;43.192;23.284;2023-02-01T01:33:41;4.40;;;2.93;;
10347;SDS011;5220;43.192;23.284;2023-02-01T01:36:09;3.20;;;2.40;;
10347;SDS011;5220;43.192;23.284;2023-02-01T01:38:38;3.80;;;2.93;;
10347;SDS011;5220;43.192;23.284;2023-02-01T01:41:05;3.20;;;2.70;;
10347;SDS011;5220;43.192;23.284;2023-02-01T01:43:53;2.30;;;2.10;;
10347;SDS011;5220;43.192;23.284;2023-02-01T01:46:22;3.00;;;2.43;;
10347;SDS011;5220;43.192;23.284;2023-02-01T01:48:52;3.80;;;2.60;;
10347;SDS011;5220;43.192;23.284;2023-02-01T01:51:23;3.50;;;2.20;;
10347;SDS011;5220;43.192;23.284;2023-02-01T01:53:57;3.13;;;2.03;;
10347;SDS011;5220;43.192;23.284;2023-02-01T01:56:28;4.87;;;2.30;;
10347;SDS011;5220;43.192;23.284;2023-02-01T01:58:59;2.37;;;2.10;;
10347;SDS011;5220;43.192;23.284;2023-02-01T02:01:26;3.00;;;1.90;;
10347;SDS011;5220;43.192;23.284;2023-02-01T02:03:54;2.33;;;1.70;;
10347;SDS011;5220;43.192;23.284;2023-02-01T02:06:26;3.10;;;2.03;;
10347;SDS011;5220;43.192;23.284;2023-02-01T02:08:58;2.30;;;2.10;;
10347;SDS011;5220;43.192;23.284;2023-02-01T02:11:25;4.27;;;2.23;;
10347;SDS011;5220;43.192;23.284;2023-02-01T02:13:53;3.00;;;2.20;;
10347;SDS011;5220;43.192;23.284;2023-02-01T02:16:46;2.10;;;2.00;;
10347;SDS011;5220;43.192;23.284;2023-02-01T02:22:53;4.00;;;3.00;;
10347;SDS011;5220;43.192;23.284;2023-02-01T02:25:56;3.33;;;2.40;;
10347;SDS011;5220;43.192;23.284;2023-02-01T02:28:47;2.40;;;2.20;;
10347;SDS011;5220;43.192;23.284;2023-02-01T02:34:33;2.43;;;2.23;;
10347;SDS011;5220;43.192;23.284;2023-02-01T02:37:08;2.40;;;1.80;;
10347;SDS011;5220;43.192;23.284;2023-02-01T02:39:44;2.27;;;1.93;;
10347;SDS011;5220;43.192;23.284;2023-02-01T02:42:17;6.10;;;4.93;;
10347;SDS011;5220;43.192;23.284;2023-02-01T02:45:10;9.70;;;3.57;;
10347;SDS011;5220;43.192;23.284;2023-02-01T02:48:07;2.93;;;2.63;;
10347;SDS011;5220;43.192;23.284;2023-02-01T02:50:40;3.83;;;2.97;;
10347;SDS011;5220;43.192;23.284;2023-02-01T02:53:28;6.67;;;5.93;;
10347;SDS011;5220;43.192;23.284;2023-02-01T02:56:18;3.37;;;3.07;;
10347;SDS011;5220;43.192;23.284;2023-02-01T02:59:06;2.17;;;1.87;;
10347;SDS011;5220;43.192;23.284;2023-02-01T03:01:52;3.20;;;2.37;;
10347;SDS011;5220;43.192;23.284;2023-02-01T03:04:37;2.20;;;2.00;;
10347;SDS011;5220;43.192;23.284;2023-02-01T03:07:13;3.07;;;1.93;;
10347;SDS011;5220;43.192;23.284;2023-02-01T03:10:03;2.33;;;1.50;;
10347;SDS011;5220;43.192;23.284;2023-02-01T03:12:34;1.73;;;1.60;;
10347;SDS011;5220;43.192;23.284;2023-02-01T03:15:22;3.73;;;1.93;;
10347;SDS011;5220;43.192;23.284;2023-02-01T03:17:53;2.83;;;2.53;;
10347;SDS011;5220;43.192;23.284;2023-02-01T03:20:24;4.30;;;2.53;;
10347;SDS011;5220;43.192;23.284;2023-02-01T03:22:53;4.43;;;3.27;;
10347;SDS011;5220;43.192;23.284;2023-02-01T03:25:22;5.20;;;3.57;;
10347;SDS011;5220;43.192;23.284;2023-02-01T03:27:55;3.83;;;2.57;;
10347;SDS011;5220;43.192;23.284;2023-02-01T03:30:26;3.57;;;2.43;;
10347;SDS011;5220;43.192;23.284;2023-02-01T03:32:56;4.53;;;3.20;;
10347;SDS011;5220;43.192;23.284;2023-02-01T03:35:26;2.53;;;2.20;;
10347;SDS011;5220;43.192;23.284;2023-02-01T03:37:59;3.17;;;2.00;;
10347;SDS011;5220;43.192;23.284;2023-02-01T03:40:30;3.03;;;1.93;;
10347;SDS011;5220;43.192;23.284;2023-02-01T03:43:01;2.20;;;1.60;;
10347;SDS011;5220;43.192;23.284;2023-02-01T03:45:33;2.53;;;2.20;;
10347;SDS011;5220;43.192;23.284;2023-02-01T03:48:04;4.10;;;2.03;;
10347;SDS011;5220;43.192;23.284;2023-02-01T03:50:33;3.30;;;2.37;;
10347;SDS011;5220;43.192;23.284;2023-02-01T03:53:06;4.77;;;2.67;;
10347;SDS011;5220;43.192;23.284;2023-02-01T03:55:36;2.33;;;2.10;;
10347;SDS011;5220;43.192;23.284;2023-02-01T03:58:06;2.20;;;2.00;;
10347;SDS011;5220;43.192;23.284;2023-02-01T04:00:35;1.93;;;1.47;;
10347;SDS011;5220;43.192;23.284;2023-02-01T04:03:02;2.23;;;1.80;;
10347;SDS011;5220;43.192;23.284;2023-02-01T04:05:31;2.47;;;1.97;;
10347;SDS011;5220;43.192;23.284;2023-02-01T04:07:58;3.17;;;2.20;;
10347;SDS011;5220;43.192;23.284;2023-02-01T04:10:26;4.93;;;2.83;;
10347;SDS011;5220;43.192;23.284;2023-02-01T04:12:53;5.00;;;3.27;;
10347;SDS011;5220;43.192;23.284;2023-02-01T04:15:19;5.17;;;3.40;;
10347;SDS011;5220;43.192;23.284;2023-02-01T04:17:46;4.60;;;2.60;;
10347;SDS011;5220;43.192;23.284;2023-02-01T04:20:13;4.40;;;2.60;;
10347;SDS011;5220;43.192;23.284;2023-02-01T04:22:39;6.10;;;3.80;;
10347;SDS011;5220;43.192;23.284;2023-02-01T04:25:07;8.20;;;5.23;;
10347;SDS011;5220;43.192;23.284;2023-02-01T04:27:35;6.60;;;3.90;;
10347;SDS011;5220;43.192;23.284;2023-02-01T04:30:02;2.67;;;2.30;;
10347;SDS011;5220;43.192;23.284;2023-02-01T04:32:29;4.97;;;3.13;;
10347;SDS011;5220;43.192;23.284;2023-02-01T04:34:56;3.60;;;2.97;;
10347;SDS011;5220;43.192;23.284;2023-02-01T04:37:22;5.03;;;2.57;;
10347;SDS011;5220;43.192;23.284;2023-02-01T04:39:49;3.00;;;2.27;;
10347;SDS011;5220;43.192;23.284;2023-02-01T04:42:16;2.87;;;1.47;;
10347;SDS011;5220;43.192;23.284;2023-02-01T04:44:44;2.60;;;1.70;;
10347;SDS011;5220;43.192;23.284;2023-02-01T04:47:10;2.47;;;1.93;;
10347;SDS011;5220;43.192;23.284;2023-02-01T04:49:37;2.40;;;1.50;;
10347;SDS011;5220;43.192;23.284;2023-02-01T04:52:04;1.93;;;1.70;;
10347;SDS011;5220;43.192;23.284;2023-02-01T04:54:30;1.80;;;1.70;;
10347;SDS011;5220;43.192;23.284;2023-02-01T04:56:57;1.77;;;1.57;;
10347;SDS011;5220;43.192;23.284;2023-02-01T04:59:24;1.77;;;1.50;;
10347;SDS011;5220;43.192;23.284;2023-02-01T05:01:52;1.60;;;1.10;;
10347;SDS011;5220;43.192;23.284;2023-02-01T05:04:19;2.03;;;1.50;;
10347;SDS011;5220;43.192;23.284;2023-02-01T05:06:45;2.53;;;1.73;;
10347;SDS011;5220;43.192;23.284;2023-02-01T05:09:12;1.60;;;1.50;;
10347;SDS011;5220;43.192;23.284;2023-02-01T05:11:39;1.97;;;1.50;;
10347;SDS011;5220;43.192;23.284;2023-02-01T05:14:23;5.47;;;2.17;;
10347;SDS011;5220;43.192;23.284;2023-02-01T05:16:50;9.23;;;6.27;;
10347;SDS011;5220;43.192;23.284;2023-02-01T05:19:18;4.70;;;3.87;;
10347;SDS011;5220;43.192;23.284;2023-02-01T05:21:45;10.80;;;6.43;;
10347;SDS011;5220;43.192;23.284;2023-02-01T05:24:11;16.10;;;10.30;;
10347;SDS011;5220;43.192;23.284;2023-02-01T05:26:41;12.40;;;6.87;;
10347;SDS011;5220;43.192;23.284;2023-02-01T05:29:09;11.87;;;7.30;;
10347;SDS011;5220;43.192;23.284;2023-02-01T05:31:36;15.93;;;5.83;;
10347;SDS011;5220;43.192;23.284;2023-02-01T05:34:03;6.33;;;3.77;;
10347;SDS011;5220;43.192;23.284;2023-02-01T05:36:32;5.67;;;3.50;;
10347;SDS011;5220;43.192;23.284;2023-02-01T05:38:59;3.27;;;2.30;;
10347;SDS011;5220;43.192;23.284;2023-02-01T05:41:25;2.77;;;2.37;;
10347;SDS011;5220;43.192;23.284;2023-02-01T05:43:52;2.50;;;2.30;;
10347;SDS011;5220;43.192;23.284;2023-02-01T05:46:19;4.10;;;2.90;;
10347;SDS011;5220;43.192;23.284;2023-02-01T05:48:45;2.73;;;2.10;;
10347;SDS011;5220;43.192;23.284;2023-02-01T05:51:12;3.47;;;2.63;;
10347;SDS011;5220;43.192;23.284;2023-02-01T05:53:41;2.33;;;1.60;;
10347;SDS011;5220;43.192;23.284;2023-02-01T05:56:07;3.23;;;2.20;;
10347;SDS011;5220;43.192;23.284;2023-02-01T05:58:34;4.70;;;3.63;;
10347;SDS011;5220;43.192;23.284;2023-02-01T06:01:01;5.67;;;3.00;;
10347;SDS011;5220;43.192;23.284;2023-02-01T06:03:28;3.23;;;2.47;;
10347;SDS011;5220;43.192;23.284;2023-02-01T06:05:55;3.17;;;2.20;;
10347;SDS011;5220;43.192;23.284;2023-02-01T06:08:22;4.37;;;2.90;;
10347;SDS011;5220;43.192;23.284;2023-02-01T06:10:56;3.53;;;3.20;;
10347;SDS011;5220;43.192;23.284;2023-02-01T06:13:24;5.17;;;4.10;;
10347;SDS011;5220;43.192;23.284;2023-02-01T06:15:50;7.03;;;5.10;;
10347;SDS011;5220;43.192;23.284;2023-02-01T06:18:17;4.97;;;4.00;;
10347;SDS011;5220;43.192;23.284;2023-02-01T06:20:44;9.07;;;5.10;;
10347;SDS011;5220;43.192;23.284;2023-02-01T06:23:11;9.10;;;6.07;;
10347;SDS011;5220;43.192;23.284;2023-02-01T06:25:37;10.00;;;7.37;;
10347;SDS011;5220;43.192;23.284;2023-02-01T06:28:05;10.40;;;8.67;;
10347;SDS011;5220;43.192;23.284;2023-02-01T06:30:33;15.43;;;8.60;;
10347;SDS011;5220;43.192;23.284;2023-02-01T06:32:59;12.60;;;10.10;;
10347;SDS011;5220;43.192;23.284;2023-02-01T06:35:26;10.87;;;8.97;;
10347;SDS011;5220;43.192;23.284;2023-02-01T06:37:53;7.10;;;5.83;;
10347;SDS011;5220;43.192;23.284;2023-02-01T06:40:19;9.57;;;6.47;;
10347;SDS011;5220;43.192;23.284;2023-02-01T06:42:47;11.17;;;9.00;;
10347;SDS011;5220;43.192;23.284;2023-02-01T06:45:16;9.73;;;7.17;;
10347;SDS011;5220;43.192;23.284;2023-02-01T06:47:43;10.80;;;7.40;;
10347;SDS011;5220;43.192;23.284;2023-02-01T06:50:09;9.43;;;6.80;;
10347;SDS011;5220;43.192;23.284;2023-02-01T06:52:36;11.17;;;6.30;;
10347;SDS011;5220;43.192;23.284;2023-02-01T06:55:03;8.23;;;6.40;;
10347;SDS011;5220;43.192;23.284;2023-02-01T06:57:30;12.50;;;9.00;;
10347;SDS011;5220;43.192;23.284;2023-02-01T06:59:59;13.20;;;8.23;;
10347;SDS011;5220;43.192;23.284;2023-02-01T07:02:27;12.00;;;7.90;;
10347;SDS011;5220;43.192;23.284;2023-02-01T07:04:54;13.13;;;9.13;;
10347;SDS011;5220;43.192;23.284;2023-02-01T07:07:20;15.10;;;11.03;;
10347;SDS011;5220;43.192;23.284;2023-02-01T07:09:47;17.43;;;11.90;;
10347;SDS011;5220;43.192;23.284;2023-02-01T07:12:14;6.40;;;4.87;;
10347;SDS011;5220;43.192;23.284;2023-02-01T07:14:41;5.53;;;4.80;;
10347;SDS011;5220;43.192;23.284;2023-02-01T07:17:07;6.13;;;4.27;;
10347;SDS011;5220;43.192;23.284;2023-02-01T07:19:35;4.93;;;4.43;;
10347;SDS011;5220;43.192;23.284;2023-02-01T07:22:02;5.87;;;4.90;;
10347;SDS011;5220;43.192;23.284;2023-02-01T07:24:29;5.73;;;4.63;;
10347;SDS011;5220;43.192;23.284;2023-02-01T07:26:56;4.90;;;3.83;;
10347;SDS011;5220;43.192;23.284;2023-02-01T07:29:23;6.67;;;4.00;;
10347;SDS011;5220;43.192;23.284;2023-02-01T07:31:49;7.37;;;5.03;;
10347;SDS011;5220;43.192;23.284;2023-02-01T07:34:16;4.83;;;4.33;;
10347;SDS011;5220;43.192;23.284;2023-02-01T07:36:44;6.33;;;3.87;;
10347;SDS011;5220;43.192;23.284;2023-02-01T07:39:11;7.13;;;5.50;;
10347;SDS011;5220;43.192;23.284;2023-02-01T07:41:37;13.70;;;9.33;;
10347;SDS011;5220;43.192;23.284;2023-02-01T07:44:04;15.67;;;9.83;;
10347;SDS011;5220;43.192;23.284;2023-02-01T07:46:31;9.53;;;5.70;;
10347;SDS011;5220;43.192;23.284;2023-02-01T07:48:57;17.13;;;11.27;;
10347;SDS011;5220;43.192;23.284;2023-02-01T07:51:24;16.43;;;10.30;;
10347;SDS011;5220;43.192;23.284;2023-02-01T07:53:52;9.93;;;6.50;;
10347;SDS011;5220;43.192;23.284;2023-02-01T07:56:19;15.57;;;10.07;;
10347;SDS011;5220;43.192;23.284;2023-02-01T07:58:47;15.70;;;10.30;;
10347;SDS011;5220;43.192;23.284;2023-02-01T08:01:15;13.00;;;9.23;;
10347;SDS011;5220;43.192;23.284;2023-02-01T08:03:45;12.77;;;9.18;;
10347;SDS011;5220;43.192;23.284;2023-02-01T08:06:12;17.90;;;10.43;;
10347;SDS011;5220;43.192;23.284;2023-02-01T08:08:41;12.60;;;8.60;;
10347;SDS011;5220;43.192;23.284;2023-02-01T08:11:13;19.50;;;13.57;;
10347;SDS011;5220;43.192;23.284;2023-02-01T08:13:40;13.80;;;9.35;;
10347;SDS011;5220;43.192;23.284;2023-02-01T08:16:07;9.25;;;7.75;;
10347;SDS011;5220;43.192;23.284;2023-02-01T08:18:36;11.87;;;9.20;;
10347;SDS011;5220;43.192;23.284;2023-02-01T08:21:04;11.73;;;9.40;;
10347;SDS011;5220;43.192;23.284;2023-02-01T08:23:32;14.57;;;9.40;;
10347;SDS011;5220;43.192;23.284;2023-02-01T08:26:09;17.33;;;10.80;;
10347;SDS011;5220;43.192;23.284;2023-02-01T08:28:41;10.63;;;7.95;;
10347;SDS011;5220;43.192;23.284;2023-02-01T08:31:09;8.40;;;6.80;;
10347;SDS011;5220;43.192;23.284;2023-02-01T08:33:40;11.30;;;7.95;;
10347;SDS011;5220;43.192;23.284;2023-02-01T08:36:08;11.63;;;8.63;;
10347;SDS011;5220;43.192;23.284;2023-02-01T08:38:36;10.43;;;8.27;;
10347;SDS011;5220;43.192;23.284;2023-02-01T08:41:04;12.07;;;10.87;;
10347;SDS011;5220;43.192;23.284;2023-02-01T08:43:32;8.10;;;5.17;;
10347;SDS011;5220;43.192;23.284;2023-02-01T08:46:00;6.03;;;3.30;;
10347;SDS011;5220;43.192;23.284;2023-02-01T08:48:27;4.95;;;3.50;;
10347;SDS011;5220;43.192;23.284;2023-02-01T08:50:54;6.55;;;4.85;;
10347;SDS011;5220;43.192;23.284;2023-02-01T08:53:20;17.98;;;11.48;;
10347;SDS011;5220;43.192;23.284;2023-02-01T08:55:47;44.88;;;23.08;;
10347;SDS011;5220;43.192;23.284;2023-02-01T08:58:14;35.67;;;19.90;;
10347;SDS011;5220;43.192;23.284;2023-02-01T09:00:42;32.55;;;16.13;;
10347;SDS011;5220;43.192;23.284;2023-02-01T09:03:11;23.85;;;16.73;;
10347;SDS011;5220;43.192;23.284;2023-02-01T09:05:38;13.10;;;9.48;;
10347;SDS011;5220;43.192;23.284;2023-02-01T09:08:05;13.88;;;7.55;;
10347;SDS011;5220;43.192;23.284;2023-02-01T09:10:32;16.58;;;10.52;;
10347;SDS011;5220;43.192;23.284;2023-02-01T09:12:59;26.17;;;18.38;;
10347;SDS011;5220;43.192;23.284;2023-02-01T09:15:26;15.02;;;10.63;;
10347;SDS011;5220;43.192;23.284;2023-02-01T09:17:54;19.08;;;10.20;;
10347;SDS011;5220;43.192;23.284;2023-02-01T09:20:22;9.68;;;6.50;;
10347;SDS011;5220;43.192;23.284;2023-02-01T09:22:49;6.38;;;5.30;;
10347;SDS011;5220;43.192;23.284;2023-02-01T09:25:16;12.88;;;9.07;;
10347;SDS011;5220;43.192;23.284;2023-02-01T09:27:43;8.50;;;6.50;;
10347;SDS011;5220;43.192;23.284;2023-02-01T09:30:10;3.15;;;2.72;;
10347;SDS011;5220;43.192;23.284;2023-02-01T09:32:38;4.85;;;3.05;;
10347;SDS011;5220;43.192;23.284;2023-02-01T09:35:05;3.72;;;2.05;;
10347;SDS011;5220;43.192;23.284;2023-02-01T09:37:33;2.40;;;2.00;;
10347;SDS011;5220;43.192;23.284;2023-02-01T09:40:01;2.28;;;2.08;;
10347;SDS011;5220;43.192;23.284;2023-02-01T09:42:39;1.40;;;1.30;;
10347;SDS011;5220;43.192;23.284;2023-02-01T09:45:17;5.57;;;3.20;;
10347;SDS011;5220;43.192;23.284;2023-02-01T09:47:50;3.60;;;2.33;;
10347;SDS011;5220;43.192;23.284;2023-02-01T09:50:20;4.05;;;3.22;;
10347;SDS011;5220;43.192;23.284;2023-02-01T09:52:55;6.30;;;4.32;;
10347;SDS011;5220;43.192;23.284;2023-02-01T09:55:30;4.85;;;3.08;;
10347;SDS011;5220;43.192;23.284;2023-02-01T09:58:05;1.63;;;1.52;;
10347;SDS011;5220;43.192;23.284;2023-02-01T10:00:35;2.95;;;2.40;;
10347;SDS011;5220;43.192;23.284;2023-02-01T10:03:03;8.68;;;4.53;;
10347;SDS011;5220;43.192;23.284;2023-02-01T10:05:37;13.82;;;5.00;;
10347;SDS011;5220;43.192;23.284;2023-02-01T10:08:15;6.03;;;2.35;;
10347;SDS011;5220;43.192;23.284;2023-02-01T10:10:48;2.40;;;2.20;;
10347;SDS011;5220;43.192;23.284;2023-02-01T10:13:19;1.50;;;1.15;;
10347;SDS011;5220;43.192;23.284;2023-02-01T10:18:51;6.68;;;5.28;;
10347;SDS011;5220;43.192;23.284;2023-02-01T10:21:31;3.42;;;2.60;;
10347;SDS011;5220;43.192;23.284;2023-02-01T10:24:17;3.00;;;2.00;;
10347;SDS011;5220;43.192;23.284;2023-02-01T10:26:55;10.20;;;6.43;;
10347;SDS011;5220;43.192;23.284;2023-02-01T10:29:29;4.10;;;3.10;;
10347;SDS011;5220;43.192;23.284;2023-02-01T10:32:01;9.43;;;6.20;;
10347;SDS011;5220;43.192;23.284;2023-02-01T10:34:30;52.45;;;33.88;;
10347;SDS011;5220;43.192;23.284;2023-02-01T10:37:00;10.82;;;8.23;;
10347;SDS011;5220;43.192;23.284;2023-02-01T10:39:32;11.65;;;8.93;;
10347;SDS011;5220;43.192;23.284;2023-02-01T10:41:59;8.13;;;6.32;;
10347;SDS011;5220;43.192;23.284;2023-02-01T10:44:26;6.50;;;5.00;;
10347;SDS011;5220;43.192;23.284;2023-02-01T10:46:55;5.55;;;3.78;;
10347;SDS011;5220;43.192;23.284;2023-02-01T10:49:22;6.70;;;4.22;;
10347;SDS011;5220;43.192;23.284;2023-02-01T10:51:55;6.53;;;4.47;;
10347;SDS011;5220;43.192;23.284;2023-02-01T10:54:33;8.82;;;5.90;;
10347;SDS011;5220;43.192;23.284;2023-02-01T10:57:03;9.90;;;5.38;;
10347;SDS011;5220;43.192;23.284;2023-02-01T10:59:34;5.35;;;4.32;;
10347;SDS011;5220;43.192;23.284;2023-02-01T11:02:02;9.50;;;5.03;;
10347;SDS011;5220;43.192;23.284;2023-02-01T11:04:57;13.73;;;10.13;;
10347;SDS011;5220;43.192;23.284;2023-02-01T11:07:26;13.95;;;10.55;;
10347;SDS011;5220;43.192;23.284;2023-02-01T11:09:55;7.63;;;4.97;;
10347;SDS011;5220;43.192;23.284;2023-02-01T11:12:25;4.28;;;3.15;;
10347;SDS011;5220;43.192;23.284;2023-02-01T11:14:57;3.83;;;3.25;;
10347;SDS011;5220;43.192;23.284;2023-02-01T11:17:28;2.63;;;2.42;;
10347;SDS011;5220;43.192;23.284;2023-02-01T11:20:00;4.85;;;3.67;;
10347;SDS011;5220;43.192;23.284;2023-02-01T11:22:29;2.75;;;2.38;;
10347;SDS011;5220;43.192;23.284;2023-02-01T11:24:57;10.43;;;3.00;;
10347;SDS011;5220;43.192;23.284;2023-02-01T11:27:27;6.53;;;4.00;;
10347;SDS011;5220;43.192;23.284;2023-02-01T11:29:56;6.18;;;4.40;;
10347;SDS011;5220;43.192;23.284;2023-02-01T11:32:27;4.38;;;3.75;;
10347;SDS011;5220;43.192;23.284;2023-02-01T11:34:55;5.80;;;4.35;;
10347;SDS011;5220;43.192;23.284;2023-02-01T11:37:27;7.53;;;4.05;;
10347;SDS011;5220;43.192;23.284;2023-02-01T11:39:59;2.75;;;1.70;;
10347;SDS011;5220;43.192;23.284;2023-02-01T11:42:27;8.27;;;6.47;;
10347;SDS011;5220;43.192;23.284;2023-02-01T11:45:09;9.13;;;8.32;;
10347;SDS011;5220;43.192;23.284;2023-02-01T11:47:44;4.78;;;2.97;;
10347;SDS011;5220;43.192;23.284;2023-02-01T11:50:14;6.47;;;4.82;;
10347;SDS011;5220;43.192;23.284;2023-02-01T11:52:52;2.95;;;2.25;;
10347;SDS011;5220;43.192;23.284;2023-02-01T11:55:33;3.25;;;2.30;;
10347;SDS011;5220;43.192;23.284;2023-02-01T11:58:14;6.78;;;4.10;;
10347;SDS011;5220;43.192;23.284;2023-02-01T12:00:54;8.55;;;4.55;;
10347;SDS011;5220;43.192;23.284;2023-02-01T12:03:44;11.13;;;5.47;;
10347;SDS011;5220;43.192;23.284;2023-02-01T12:06:25;6.72;;;4.65;;
10347;SDS011;5220;43.192;23.284;2023-02-01T12:09:05;24.10;;;10.80;;
10347;SDS011;5220;43.192;23.284;2023-02-01T12:11:46;11.15;;;5.30;;
10347;SDS011;5220;43.192;23.284;2023-02-01T12:14:23;3.45;;;3.00;;
10347;SDS011;5220;43.192;23.284;2023-02-01T12:17:06;4.53;;;4.05;;
10347;SDS011;5220;43.192;23.284;2023-02-01T12:19:57;6.70;;;4.40;;
10347;SDS011;5220;43.192;23.284;2023-02-01T12:22:38;4.70;;;3.75;;
10347;SDS011;5220;43.192;23.284;2023-02-01T12:25:21;3.75;;;2.60;;
10347;SDS011;5220;43.192;23.284;2023-02-01T12:28:06;11.82;;;5.85;;
10347;SDS011;5220;43.192;23.284;2023-02-01T12:31:03;15.52;;;5.93;;
10347;SDS011;5220;43.192;23.284;2023-02-01T12:33:52;14.43;;;6.45;;
10347;SDS011;5220;43.192;23.284;2023-02-01T12:36:30;5.93;;;4.25;;
10347;SDS011;5220;43.192;23.284;2023-02-01T12:39:06;2.42;;;1.98;;
10347;SDS011;5220;43.192;23.284;2023-02-01T12:41:45;7.47;;;5.43;;
10347;SDS011;5220;43.192;23.284;2023-02-01T12:44:21;40.92;;;14.40;;
10347;SDS011;5220;43.192;23.284;2023-02-01T12:46:54;24.55;;;8.38;;
10347;SDS011;5220;43.192;23.284;2023-02-01T12:49:27;14.73;;;7.20;;
10347;SDS011;5220;43.192;23.284;2023-02-01T12:52:02;15.02;;;8.50;;
10347;SDS011;5220;43.192;23.284;2023-02-01T12:54:34;10.45;;;6.82;;
10347;SDS011;5220;43.192;23.284;2023-02-01T12:57:06;14.32;;;6.28;;
10347;SDS011;5220;43.192;23.284;2023-02-01T12:59:42;5.13;;;2.90;;
10347;SDS011;5220;43.192;23.284;2023-02-01T13:02:15;7.88;;;4.10;;
10347;SDS011;5220;43.192;23.284;2023-02-01T13:04:50;4.18;;;2.70;;
10347;SDS011;5220;43.192;23.284;2023-02-01T13:07:27;4.07;;;2.63;;
10347;SDS011;5220;43.192;23.284;2023-02-01T13:09:58;2.42;;;1.83;;
10347;SDS011;5220;43.192;23.284;2023-02-01T13:12:32;16.92;;;7.55;;
10347;SDS011;5220;43.192;23.284;2023-02-01T13:15:04;7.57;;;3.40;;
10347;SDS011;5220;43.192;23.284;2023-02-01T13:17:39;5.60;;;3.65;;
10347;SDS011;5220;43.192;23.284;2023-02-01T13:20:13;11.45;;;5.72;;
10347;SDS011;5220;43.192;23.284;2023-02-01T13:22:45;8.68;;;4.95;;
10347;SDS011;5220;43.192;23.284;2023-02-01T13:25:17;9.10;;;5.88;;
10347;SDS011;5220;43.192;23.284;2023-02-01T13:27:53;9.80;;;5.00;;
10347;SDS011;5220;43.192;23.284;2023-02-01T13:30:26;4.78;;;2.70;;
10347;SDS011;5220;43.192;23.284;2023-02-01T13:39:02;2.55;;;2.15;;
10347;SDS011;5220;43.192;23.284;2023-02-01T13:41:50;7.28;;;4.57;;
10347;SDS011;5220;43.192;23.284;2023-02-01T13:44:22;10.50;;;5.93;;
10347;SDS011;5220;43.192;23.284;2023-02-01T13:46:54;13.13;;;8.85;;
10347;SDS011;5220;43.192;23.284;2023-02-01T13:49:25;3.95;;;2.92;;
10347;SDS011;5220;43.192;23.284;2023-02-01T13:51:55;6.68;;;5.05;;
10347;SDS011;5220;43.192;23.284;2023-02-01T13:54:27;10.15;;;4.30;;
10347;SDS011;5220;43.192;23.284;2023-02-01T13:56:57;9.20;;;4.80;;
10347;SDS011;5220;43.192;23.284;2023-02-01T14:02:49;7.13;;;4.45;;
10347;SDS011;5220;43.192;23.284;2023-02-01T14:08:35;7.60;;;3.35;;
10347;SDS011;5220;43.192;23.284;2023-02-01T14:11:07;6.32;;;3.40;;
10347;SDS011;5220;43.192;23.284;2023-02-01T14:23:16;8.43;;;3.00;;
10347;SDS011;5220;43.192;23.284;2023-02-01T14:25:56;3.40;;;2.15;;
10347;SDS011;5220;43.192;23.284;2023-02-01T14:28:32;2.88;;;1.33;;
10347;SDS011;5220;43.192;23.284;2023-02-01T14:31:12;3.70;;;2.45;;
10347;SDS011;5220;43.192;23.284;2023-02-01T14:33:49;5.55;;;3.47;;
10347;SDS011;5220;43.192;23.284;2023-02-01T14:36:20;3.75;;;2.95;;
10347;SDS011;5220;43.192;23.284;2023-02-01T14:38:49;2.47;;;1.80;;
10347;SDS011;5220;43.192;23.284;2023-02-01T14:41:28;10.45;;;2.28;;
10347;SDS011;5220;43.192;23.284;2023-02-01T14:44:14;10.35;;;3.80;;
10347;SDS011;5220;43.192;23.284;2023-02-01T14:52:50;4.50;;;3.53;;
10347;SDS011;5220;43.192;23.284;2023-02-01T14:55:29;7.40;;;4.18;;
10347;SDS011;5220;43.192;23.284;2023-02-01T14:58:05;13.85;;;8.15;;
10347;SDS011;5220;43.192;23.284;2023-02-01T15:00:43;12.60;;;8.10;;
10347;SDS011;5220;43.192;23.284;2023-02-01T15:03:16;8.10;;;6.22;;
10347;SDS011;5220;43.192;23.284;2023-02-01T15:05:55;6.10;;;3.83;;
10347;SDS011;5220;43.192;23.284;2023-02-01T15:08:25;4.75;;;4.20;;
10347;SDS011;5220;43.192;23.284;2023-02-01T15:10:55;8.50;;;3.70;;
10347;SDS011;5220;43.192;23.284;2023-02-01T15:13:27;9.60;;;5.05;;
10347;SDS011;5220;43.192;23.284;2023-02-01T15:16:05;9.70;;;5.57;;
10347;SDS011;5220;43.192;23.284;2023-02-01T15:18:36;7.53;;;3.92;;
10347;SDS011;5220;43.192;23.284;2023-02-01T15:21:04;6.85;;;3.78;;
10347;SDS011;5220;43.192;23.284;2023-02-01T15:23:32;7.03;;;3.30;;
10347;SDS011;5220;43.192;23.284;2023-02-01T15:26:01;6.00;;;3.65;;
10347;SDS011;5220;43.192;23.284;2023-02-01T15:28:27;6.47;;;4.28;;
10347;SDS011;5220;43.192;23.284;2023-02-01T15:30:55;16.80;;;7.22;;
10347;SDS011;5220;43.192;23.284;2023-02-01T15:33:23;6.57;;;5.38;;
10347;SDS011;5220;43.192;23.284;2023-02-01T15:35:51;7.10;;;5.30;;
10347;SDS011;5220;43.192;23.284;2023-02-01T15:38:30;8.20;;;5.50;;
10347;SDS011;5220;43.192;23.284;2023-02-01T15:41:02;8.57;;;5.13;;
10347;SDS011;5220;43.192;23.284;2023-02-01T15:43:33;10.57;;;7.57;;